createdAt,value
2018-09-26T00:01:12.722Z,54.07
2018-09-26T00:03:44.472Z,57.40
2018-09-26T00:06:12.864Z,53.27
2018-09-26T00:08:41.251Z,58.03
2018-09-26T00:11:09.624Z,51.53
2018-09-26T00:13:38.012Z,55.67
2018-09-26T00:16:06.455Z,52.50
2018-09-26T00:18:34.852Z,110.90
2018-09-26T00:21:03.232Z,104.37
2018-09-26T00:23:32.486Z,78.93
2018-09-26T00:26:00.899Z,66.03
2018-09-26T00:28:29.271Z,78.40
2018-09-26T00:30:57.815Z,71.73
2018-09-26T00:33:26.186Z,58.43
2018-09-26T00:35:54.641Z,71.97
2018-09-26T00:38:22.967Z,64.73
2018-09-26T00:40:51.380Z,63.00
2018-09-26T00:43:19.767Z,72.43
2018-09-26T00:45:48.307Z,78.87
2018-09-26T00:48:16.670Z,96.57
2018-09-26T00:50:45.060Z,80.93
2018-09-26T00:53:13.447Z,71.57
2018-09-26T00:55:41.869Z,70.10
2018-09-26T00:58:10.263Z,76.97
2018-09-26T01:00:38.876Z,72.77
2018-09-26T01:03:07.477Z,74.87
2018-09-26T01:05:36.047Z,74.37
2018-09-26T01:08:04.471Z,75.70
2018-09-26T01:10:32.848Z,77.13
2018-09-26T01:13:01.247Z,75.80
2018-09-26T01:15:29.632Z,89.63
2018-09-26T01:17:58.041Z,75.57
2018-09-26T01:20:26.420Z,67.70
2018-09-26T01:22:54.809Z,80.57
2018-09-26T01:25:23.187Z,78.50
2018-09-26T01:27:51.590Z,77.23
2018-09-26T01:30:19.967Z,92.13
2018-09-26T01:32:48.349Z,92.20
2018-09-26T01:35:16.732Z,82.87
2018-09-26T01:37:45.219Z,88.80
2018-09-26T01:40:13.600Z,86.63
2018-09-26T01:42:41.994Z,94.10
2018-09-26T01:45:10.485Z,96.47
2018-09-26T01:47:38.860Z,111.77
2018-09-26T01:50:07.227Z,94.07
2018-09-26T01:52:35.608Z,101.90
2018-09-26T01:55:03.982Z,100.03
2018-09-26T01:57:32.387Z,103.60
2018-09-26T02:00:00.779Z,94.40
2018-09-26T02:02:29.177Z,84.63
2018-09-26T02:04:57.590Z,78.33
2018-09-26T02:07:25.967Z,68.30
2018-09-26T02:09:54.352Z,66.43
2018-09-26T02:12:22.783Z,70.90
2018-09-26T02:14:51.206Z,57.33
2018-09-26T02:17:19.615Z,55.53
2018-09-26T02:19:48.225Z,58.80
2018-09-26T02:22:16.610Z,49.17
2018-09-26T02:24:45.967Z,53.20
2018-09-26T02:27:14.383Z,44.53
2018-09-26T02:29:42.799Z,59.27
2018-09-26T02:32:11.180Z,40.10
2018-09-26T02:34:39.563Z,40.83
2018-09-26T02:37:09.146Z,38.47
2018-09-26T02:39:38.456Z,37.77
2018-09-26T02:42:06.839Z,33.70
2018-09-26T02:44:36.183Z,33.83
2018-09-26T02:47:04.911Z,30.63
2018-09-26T02:49:33.328Z,26.93
2018-09-26T02:52:01.786Z,28.60
2018-09-26T02:54:30.192Z,27.03
2018-09-26T02:56:58.563Z,26.97
2018-09-26T02:59:27.071Z,26.93
2018-09-26T03:01:55.519Z,23.73
2018-09-26T03:04:23.938Z,22.20
2018-09-26T03:06:52.315Z,22.40
2018-09-26T03:09:20.689Z,23.50
2018-09-26T03:11:49.088Z,22.00
2018-09-26T03:14:18.154Z,20.07
2018-09-26T03:16:46.680Z,19.70
2018-09-26T03:19:15.115Z,18.77
2018-09-26T03:21:43.525Z,18.40
2018-09-26T03:24:11.901Z,16.17
2018-09-26T03:26:40.306Z,18.27
2018-09-26T03:29:08.831Z,16.23
2018-09-26T03:31:37.240Z,15.27
2018-09-26T03:34:05.903Z,14.90
2018-09-26T03:36:34.298Z,14.90
2018-09-26T03:39:02.785Z,12.67
2018-09-26T03:41:31.211Z,13.90
2018-09-26T03:43:59.619Z,13.23
2018-09-26T03:46:28.011Z,13.17
2018-09-26T03:48:56.403Z,12.57
2018-09-26T03:51:24.796Z,12.63
2018-09-26T03:53:53.171Z,12.40
2018-09-26T03:56:21.984Z,11.90
2018-09-26T03:58:50.377Z,11.67
2018-09-26T04:01:18.819Z,12.00
2018-09-26T04:03:47.273Z,12.87
2018-09-26T04:06:15.795Z,11.30
2018-09-26T04:08:44.180Z,11.90
2018-09-26T04:11:12.567Z,8.20
2018-09-26T04:13:40.980Z,9.80
2018-09-26T04:16:09.448Z,8.87
2018-09-26T04:18:37.831Z,10.37
2018-09-26T04:21:06.266Z,9.30
2018-09-26T04:23:34.646Z,10.03
2018-09-26T04:26:03.043Z,10.53
2018-09-26T04:28:31.499Z,6.60
2018-09-26T04:30:59.864Z,7.20
2018-09-26T04:33:28.363Z,8.43
2018-09-26T04:35:56.695Z,8.60
2018-09-26T04:38:25.086Z,7.33
2018-09-26T04:40:53.463Z,7.77
2018-09-26T04:43:21.977Z,7.87
2018-09-26T04:45:50.478Z,7.37
2018-09-26T04:48:18.852Z,6.87
2018-09-26T04:50:47.261Z,7.67
2018-09-26T04:53:15.621Z,6.80
2018-09-26T04:55:44.075Z,7.80
2018-09-26T04:58:12.450Z,8.97
2018-09-26T05:00:40.843Z,7.40
2018-09-26T05:03:09.265Z,7.27
2018-09-26T05:05:37.684Z,5.97
2018-09-26T05:08:07.468Z,5.37
2018-09-26T05:10:35.812Z,6.43
2018-09-26T05:13:04.238Z,7.33
2018-09-26T05:15:32.618Z,5.43
2018-09-26T05:18:01.003Z,6.60
2018-09-26T05:20:29.463Z,5.80
2018-09-26T05:22:57.847Z,4.77
2018-09-26T05:25:26.219Z,7.17
2018-09-26T05:27:54.599Z,5.23
2018-09-26T05:30:23.051Z,5.30
2018-09-26T05:32:51.404Z,3.97
2018-09-26T05:35:19.821Z,6.47
2018-09-26T05:37:48.195Z,4.03
2018-09-26T05:40:16.980Z,4.77
2018-09-26T05:42:45.371Z,6.13
2018-09-26T05:45:13.732Z,5.90
2018-09-26T05:47:42.127Z,5.57
2018-09-26T05:50:10.592Z,4.87
2018-09-26T05:52:38.942Z,6.07
2018-09-26T05:55:07.357Z,8.93
2018-09-26T05:57:35.783Z,4.90
2018-09-26T06:00:04.179Z,5.17
2018-09-26T06:02:32.554Z,4.33
2018-09-26T06:05:00.967Z,4.47
2018-09-26T06:07:29.350Z,6.63
2018-09-26T06:09:57.886Z,4.60
2018-09-26T06:12:26.411Z,5.03
2018-09-26T06:14:54.802Z,10.37
2018-09-26T06:17:23.233Z,5.03
2018-09-26T06:19:51.610Z,4.53
2018-09-26T06:22:20.028Z,5.80
2018-09-26T06:24:48.531Z,3.23
2018-09-26T06:27:16.845Z,4.53
2018-09-26T06:29:45.240Z,4.47
2018-09-26T06:32:13.606Z,6.83
2018-09-26T06:34:41.987Z,4.13
2018-09-26T06:37:10.375Z,4.27
2018-09-26T06:39:38.748Z,6.03
2018-09-26T06:42:07.214Z,4.57
2018-09-26T06:44:35.587Z,4.87
2018-09-26T06:47:03.971Z,5.63
2018-09-26T06:49:32.342Z,3.50
2018-09-26T06:52:00.723Z,5.30
2018-09-26T06:54:29.090Z,4.57
2018-09-26T06:56:57.475Z,4.27
2018-09-26T06:59:25.851Z,4.03
2018-09-26T07:01:54.223Z,5.83
2018-09-26T07:04:22.771Z,5.23
2018-09-26T07:06:51.152Z,4.90
2018-09-26T07:09:19.527Z,5.50
2018-09-26T07:11:47.915Z,5.07
2018-09-26T07:14:16.388Z,4.07
2018-09-26T07:16:45.553Z,4.40
2018-09-26T07:19:14.576Z,3.87
2018-09-26T07:21:42.954Z,4.83
2018-09-26T07:24:11.365Z,3.77
2018-09-26T07:26:39.750Z,2.93
2018-09-26T07:29:08.187Z,6.93
2018-09-26T07:31:36.601Z,6.13
2018-09-26T07:34:04.962Z,3.60
2018-09-26T07:36:33.335Z,6.57
2018-09-26T07:39:01.721Z,5.03
2018-09-26T07:41:30.192Z,8.07
2018-09-26T07:43:58.585Z,11.77
2018-09-26T07:46:26.975Z,14.77
2018-09-26T07:48:55.387Z,11.80
2018-09-26T07:51:23.871Z,12.27
2018-09-26T07:53:52.258Z,12.33
2018-09-26T07:56:20.682Z,10.83
2018-09-26T07:58:49.698Z,10.23
2018-09-26T08:01:18.099Z,9.23
2018-09-26T08:03:46.467Z,8.03
2018-09-26T08:06:14.847Z,12.70
2018-09-26T08:08:43.241Z,10.37
2018-09-26T08:11:11.687Z,10.50
2018-09-26T08:13:40.019Z,7.63
2018-09-26T08:16:09.107Z,18.77
2018-09-26T08:18:37.631Z,10.73
2018-09-26T08:21:05.960Z,17.03
2018-09-26T08:23:34.344Z,19.80
2018-09-26T08:26:02.807Z,23.80
2018-09-26T08:28:31.187Z,19.70
2018-09-26T08:30:59.620Z,13.83
2018-09-26T08:33:28.032Z,16.10
2018-09-26T08:35:56.411Z,16.17
2018-09-26T08:38:24.839Z,19.60
2018-09-26T08:40:53.556Z,16.30
2018-09-26T08:43:21.961Z,27.10
2018-09-26T08:45:50.331Z,23.20
2018-09-26T08:48:18.743Z,25.07
2018-09-26T08:50:47.130Z,24.43
2018-09-26T08:53:15.531Z,24.97
2018-09-26T08:55:43.930Z,19.60
2018-09-26T08:58:12.312Z,22.43
2018-09-26T09:00:40.750Z,24.27
2018-09-26T09:03:09.307Z,17.07
2018-09-26T09:05:37.864Z,16.67
2018-09-26T09:08:06.238Z,16.70
2018-09-26T09:10:34.624Z,15.77
2018-09-26T09:13:02.998Z,21.17
2018-09-26T09:15:31.405Z,19.97
2018-09-26T09:17:59.775Z,20.37
2018-09-26T09:20:28.165Z,23.83
2018-09-26T09:22:56.651Z,21.93
2018-09-26T09:25:25.122Z,22.27
2018-09-26T09:27:53.528Z,28.70
2018-09-26T09:30:22.132Z,32.63
2018-09-26T09:32:50.886Z,31.10
2018-09-26T09:35:19.537Z,39.43
2018-09-26T09:37:47.904Z,42.43
2018-09-26T09:40:16.479Z,37.20
2018-09-26T09:42:45.374Z,37.33
2018-09-26T09:45:13.851Z,39.40
2018-09-26T09:47:42.232Z,36.13
2018-09-26T09:50:10.693Z,41.30
2018-09-26T09:52:39.083Z,45.93
2018-09-26T09:55:07.453Z,50.57
2018-09-26T09:57:35.839Z,55.37
2018-09-26T10:00:04.215Z,46.87
2018-09-26T10:02:32.659Z,51.97
2018-09-26T10:05:01.139Z,54.50
2018-09-26T10:07:29.534Z,64.33
2018-09-26T10:09:58.822Z,77.10
2018-09-26T10:12:27.255Z,67.33
2018-09-26T10:14:55.644Z,64.07
2018-09-26T10:17:24.003Z,76.60
2018-09-26T10:19:52.353Z,76.27
2018-09-26T10:22:20.708Z,72.63
2018-09-26T10:24:49.064Z,77.03
2018-09-26T10:27:17.589Z,75.23
2018-09-26T10:29:45.931Z,57.13
2018-09-26T10:32:14.372Z,60.90
2018-09-26T10:34:42.676Z,55.07
2018-09-26T10:37:11.035Z,53.03
2018-09-26T10:39:39.389Z,52.43
2018-09-26T10:42:07.778Z,48.03
2018-09-26T10:44:36.201Z,44.87
2018-09-26T10:47:04.562Z,80.53
2018-09-26T10:49:32.939Z,76.83
2018-09-26T10:52:01.323Z,79.40
2018-09-26T10:54:29.700Z,70.93
2018-09-26T10:56:58.107Z,62.27
2018-09-26T10:59:26.462Z,75.60
2018-09-26T11:01:55.050Z,72.63
2018-09-26T11:04:23.556Z,76.37
2018-09-26T11:06:52.396Z,74.27
2018-09-26T11:09:20.761Z,66.20
2018-09-26T11:11:49.122Z,69.30
2018-09-26T11:14:17.634Z,75.17
2018-09-26T11:16:45.939Z,78.30
2018-09-26T11:19:14.297Z,93.40
2018-09-26T11:21:42.890Z,102.57
2018-09-26T11:24:11.242Z,94.37
2018-09-26T11:26:39.651Z,92.57
2018-09-26T11:29:08.076Z,84.47
2018-09-26T11:31:36.536Z,71.77
2018-09-26T11:34:04.932Z,69.30
2018-09-26T11:36:33.402Z,62.57
2018-09-26T11:39:01.868Z,74.27
2018-09-26T11:41:30.221Z,96.93
2018-09-26T11:43:58.664Z,88.77
2018-09-26T11:46:27.051Z,83.37
2018-09-26T11:48:55.427Z,75.53
2018-09-26T11:51:23.780Z,74.33
2018-09-26T11:53:52.141Z,67.13
2018-09-26T11:56:20.539Z,58.50
2018-09-26T11:58:48.883Z,57.20
2018-09-26T12:01:17.400Z,62.40
2018-09-26T12:03:45.768Z,54.20
2018-09-26T12:06:14.179Z,47.80
2018-09-26T12:08:42.537Z,47.70
2018-09-26T12:11:10.892Z,55.10
2018-09-26T12:13:39.410Z,42.30
2018-09-26T12:16:08.211Z,43.50
2018-09-26T12:18:36.524Z,48.67
2018-09-26T12:21:04.873Z,39.37
2018-09-26T12:23:33.347Z,38.63
2018-09-26T12:26:01.683Z,35.03
2018-09-26T12:28:30.041Z,35.33
2018-09-26T12:30:58.885Z,35.43
2018-09-26T12:33:27.255Z,30.03
2018-09-26T12:35:55.607Z,28.30
2018-09-26T12:38:23.978Z,34.07
2018-09-26T12:40:52.366Z,37.43
2018-09-26T12:43:20.789Z,37.97
2018-09-26T12:45:49.263Z,61.07
2018-09-26T12:48:17.663Z,92.07
2018-09-26T12:50:45.999Z,75.20
2018-09-26T12:53:14.380Z,67.17
2018-09-26T12:55:42.738Z,62.97
2018-09-26T12:58:11.144Z,54.43
2018-09-26T13:00:41.583Z,54.50
2018-09-26T13:03:09.976Z,48.57
2018-09-26T13:05:38.333Z,48.13
2018-09-26T13:08:06.920Z,46.80
2018-09-26T13:10:35.928Z,45.40
2018-09-26T13:13:06.981Z,47.70
2018-09-26T13:15:35.344Z,73.10
2018-09-26T13:18:03.759Z,81.43
2018-09-26T13:20:32.127Z,51.93
2018-09-26T13:23:01.147Z,48.40
2018-09-26T13:25:29.551Z,51.63
2018-09-26T13:27:58.353Z,41.97
2018-09-26T13:30:28.838Z,46.03
2018-09-26T13:32:57.236Z,40.50
2018-09-26T13:35:25.614Z,42.37
2018-09-26T13:37:53.967Z,37.90
2018-09-26T13:40:22.395Z,35.07
2018-09-26T13:42:50.704Z,34.27
2018-09-26T13:45:19.196Z,31.97
2018-09-26T13:47:47.590Z,33.33
2018-09-26T13:50:16.055Z,30.50
2018-09-26T13:52:44.403Z,34.50
2018-09-26T13:55:13.188Z,37.97
2018-09-26T13:57:41.544Z,45.07
2018-09-26T14:00:09.962Z,46.07
2018-09-26T14:02:38.459Z,49.10
2018-09-26T14:05:07.038Z,49.53
2018-09-26T14:07:35.407Z,44.80
2018-09-26T14:10:03.769Z,45.63
2018-09-26T14:12:32.244Z,39.73
2018-09-26T14:15:00.509Z,37.07
2018-09-26T14:17:28.989Z,39.53
2018-09-26T14:19:57.276Z,35.37
2018-09-26T14:22:25.677Z,35.80
2018-09-26T14:24:57.913Z,28.67
2018-09-26T14:27:26.486Z,29.53
2018-09-26T14:29:54.870Z,28.97
2018-09-26T14:32:23.257Z,24.47
2018-09-26T14:34:51.975Z,24.23
2018-09-26T14:37:20.368Z,25.87
2018-09-26T14:39:48.749Z,23.67
2018-09-26T14:42:17.103Z,23.83
2018-09-26T14:44:45.535Z,20.57
2018-09-26T14:47:13.892Z,20.90
2018-09-26T14:49:42.444Z,21.97
2018-09-26T14:52:11.276Z,25.67
2018-09-26T14:54:39.808Z,21.00
2018-09-26T14:57:08.177Z,23.23
2018-09-26T14:59:36.540Z,22.60
2018-09-26T15:02:04.911Z,21.80
2018-09-26T15:04:33.317Z,20.63
2018-09-26T15:07:02.703Z,17.33
2018-09-26T15:09:31.116Z,18.50
2018-09-26T15:11:59.646Z,16.70
2018-09-26T15:14:28.599Z,17.43
2018-09-26T15:16:57.104Z,14.43
2018-09-26T15:19:25.496Z,18.00
2018-09-26T15:21:54.373Z,15.40
2018-09-26T15:24:22.943Z,25.80
2018-09-26T15:26:51.368Z,18.57
2018-09-26T15:29:20.077Z,27.43
2018-09-26T15:31:48.475Z,20.60
2018-09-26T15:34:17.343Z,19.57
2018-09-26T15:36:45.901Z,18.27
2018-09-26T15:39:14.389Z,17.77
2018-09-26T15:41:42.935Z,18.80
2018-09-26T15:44:11.313Z,16.60
2018-09-26T15:46:39.705Z,14.07
2018-09-26T15:49:08.055Z,16.93
2018-09-26T15:51:37.018Z,13.57
2018-09-26T15:54:05.436Z,12.87
2018-09-26T15:56:33.937Z,14.70
2018-09-26T15:59:04.015Z,11.23
2018-09-26T16:01:32.615Z,14.93
2018-09-26T16:04:00.967Z,11.27
2018-09-26T16:06:29.792Z,13.20
2018-09-26T16:08:58.170Z,16.33
2018-09-26T16:11:26.606Z,15.57
2018-09-26T16:13:55.010Z,18.50
2018-09-26T16:16:23.603Z,22.63
2018-09-26T16:18:51.908Z,24.17
2018-09-26T16:21:20.279Z,23.53
2018-09-26T16:23:48.707Z,18.33
2018-09-26T16:26:17.101Z,21.37
2018-09-26T16:28:45.539Z,17.50
2018-09-26T16:31:13.896Z,13.50
2018-09-26T16:33:42.259Z,15.03
2018-09-26T16:36:10.671Z,13.03
2018-09-26T16:38:39.093Z,12.43
2018-09-26T16:41:07.471Z,14.00
2018-09-26T16:43:35.843Z,31.27
2018-09-26T16:46:04.694Z,29.50
2018-09-26T16:48:33.099Z,29.43
2018-09-26T16:51:01.539Z,36.40
2018-09-26T16:53:29.970Z,36.50
2018-09-26T16:55:58.783Z,34.63
2018-09-26T16:58:27.281Z,29.90
2018-09-26T17:00:55.667Z,24.30
2018-09-26T17:03:24.056Z,21.43
2018-09-26T17:05:52.449Z,23.77
2018-09-26T17:08:20.913Z,35.73
2018-09-26T17:10:49.327Z,44.77
2018-09-26T17:13:17.901Z,98.37
2018-09-26T17:15:46.401Z,99.27
2018-09-26T17:18:14.915Z,77.80
2018-09-26T17:20:43.357Z,70.17
2018-09-26T17:23:11.748Z,63.53
2018-09-26T17:25:40.079Z,63.63
2018-09-26T17:28:08.534Z,65.13
2018-09-26T17:30:36.942Z,64.47
2018-09-26T17:33:05.498Z,59.43
2018-09-26T17:35:33.875Z,57.20
2018-09-26T17:38:02.247Z,55.90
2018-09-26T17:40:30.703Z,58.13
2018-09-26T17:42:59.050Z,51.33
2018-09-26T17:45:27.486Z,52.57
2018-09-26T17:47:55.911Z,52.53
2018-09-26T17:50:24.287Z,51.00
2018-09-26T17:52:52.707Z,45.80
2018-09-26T17:55:21.087Z,41.63
2018-09-26T17:57:49.435Z,56.40
2018-09-26T18:00:17.843Z,72.87
2018-09-26T18:02:46.174Z,79.13
2018-09-26T18:05:14.531Z,65.63
2018-09-26T18:07:42.900Z,67.77
2018-09-26T18:10:11.667Z,92.43
2018-09-26T18:12:40.643Z,79.73
2018-09-26T18:15:09.066Z,61.77
2018-09-26T18:17:37.424Z,57.67
2018-09-26T18:20:05.785Z,72.93
2018-09-26T18:22:34.288Z,68.20
2018-09-26T18:25:02.647Z,63.47
2018-09-26T18:27:31.111Z,62.57
2018-09-26T18:29:59.457Z,63.00
2018-09-26T18:32:28.376Z,60.70
2018-09-26T18:34:56.897Z,56.53
2018-09-26T18:37:25.279Z,58.00
2018-09-26T18:39:53.695Z,60.97
2018-09-26T18:42:22.207Z,69.97
2018-09-26T18:44:50.609Z,69.27
2018-09-26T18:47:18.934Z,60.17
2018-09-26T18:49:47.291Z,59.23
2018-09-26T18:52:15.647Z,61.53
2018-09-26T18:54:44.042Z,68.00
2018-09-26T18:57:12.687Z,88.53
2018-09-26T18:59:41.020Z,73.70
2018-09-26T19:02:09.401Z,60.93
2018-09-26T19:04:37.839Z,58.23
2018-09-26T19:07:06.147Z,50.33
2018-09-26T19:09:34.526Z,49.03
2018-09-26T19:12:02.945Z,54.93
2018-09-26T19:14:31.259Z,73.43
2018-09-26T19:16:59.639Z,65.40
2018-09-26T19:19:28.248Z,56.83
2018-09-26T19:21:57.541Z,51.23
2018-09-26T19:24:27.596Z,46.93
2018-09-26T19:26:56.201Z,43.50
2018-09-26T19:29:24.736Z,40.83
2018-09-26T19:31:53.097Z,37.33
2018-09-26T19:34:21.492Z,42.73
2018-09-26T19:36:49.867Z,56.60
2018-09-26T19:39:18.295Z,53.43
2018-09-26T19:41:46.721Z,95.67
2018-09-26T19:44:15.140Z,100.63
2018-09-26T19:46:43.685Z,87.53
2018-09-26T19:49:12.122Z,67.47
2018-09-26T19:51:40.544Z,61.63
2018-09-26T19:54:08.922Z,56.47
2018-09-26T19:56:37.372Z,54.17
2018-09-26T19:59:05.729Z,52.30
2018-09-26T20:01:34.119Z,49.43
2018-09-26T20:04:02.572Z,76.27
2018-09-26T20:06:31.300Z,146.67
2018-09-26T20:08:59.659Z,152.07
2018-09-26T20:11:28.105Z,118.97
2018-09-26T20:13:57.504Z,79.43
2018-09-26T20:16:25.871Z,75.27
2018-09-26T20:18:54.318Z,69.53
2018-09-26T20:21:22.753Z,64.03
2018-09-26T20:23:51.256Z,64.23
2018-09-26T20:26:19.756Z,60.53
2018-09-26T20:28:48.319Z,56.77
2018-09-26T20:31:16.695Z,51.93
2018-09-26T20:33:45.150Z,51.47
2018-09-26T20:36:13.539Z,98.83
2018-09-26T20:38:42.017Z,64.03
2018-09-26T20:41:10.463Z,57.50
2018-09-26T20:43:38.862Z,38.63
2018-09-26T20:46:07.833Z,43.37
2018-09-26T20:48:37.165Z,52.27
2018-09-26T20:51:05.540Z,45.03
2018-09-26T20:53:33.926Z,49.97
2018-09-26T20:56:02.296Z,47.17
2018-09-26T20:58:30.730Z,64.00
2018-09-26T21:00:59.102Z,83.73
2018-09-26T21:03:27.538Z,57.63
2018-09-26T21:05:55.911Z,58.77
2018-09-26T21:08:24.267Z,56.67
2018-09-26T21:10:52.626Z,55.00
2018-09-26T21:13:20.995Z,58.63
2018-09-26T21:15:49.439Z,53.40
2018-09-26T21:18:17.809Z,51.63
2018-09-26T21:20:46.203Z,50.70
2018-09-26T21:23:14.639Z,112.03
2018-09-26T21:25:43.101Z,138.10
2018-09-26T21:28:11.463Z,116.80
2018-09-26T21:30:39.833Z,69.93
2018-09-26T21:33:08.499Z,66.03
2018-09-26T21:35:36.982Z,59.47
2018-09-26T21:38:05.330Z,58.40
2018-09-26T21:40:34.277Z,64.07
2018-09-26T21:43:02.667Z,57.50
2018-09-26T21:45:31.136Z,56.33
2018-09-26T21:47:59.479Z,55.87
2018-09-26T21:50:27.847Z,59.50
2018-09-26T21:52:56.204Z,55.50
2018-09-26T21:55:25.278Z,55.63
2018-09-26T21:57:53.628Z,56.23
2018-09-26T22:00:22.013Z,53.03
2018-09-26T22:02:50.292Z,53.03
2018-09-26T22:05:18.567Z,56.43
2018-09-26T22:07:46.910Z,62.50
2018-09-26T22:10:15.181Z,51.13
2018-09-26T22:12:43.521Z,49.10
2018-09-26T22:15:17.212Z,49.10
2018-09-26T22:17:45.562Z,55.50
2018-09-26T22:20:13.923Z,64.43
2018-09-26T22:22:42.215Z,58.30
2018-09-26T22:25:10.485Z,65.10
2018-09-26T22:27:38.875Z,106.37
2018-09-26T22:30:07.301Z,80.83
2018-09-26T22:32:35.616Z,85.30
2018-09-26T22:35:03.880Z,62.83
2018-09-26T22:37:32.168Z,60.73
2018-09-26T22:40:00.459Z,53.57
2018-09-26T22:42:28.748Z,47.77
2018-09-26T22:44:57.815Z,41.27
2018-09-26T22:47:26.111Z,43.33
2018-09-26T22:49:54.383Z,55.20
2018-09-26T22:52:22.651Z,44.77
2018-09-26T22:54:50.929Z,36.60
2018-09-26T22:57:19.198Z,32.73
2018-09-26T22:59:47.451Z,31.77
2018-09-26T23:02:15.750Z,31.23
2018-09-26T23:04:44.031Z,29.60
2018-09-26T23:07:12.669Z,30.57
2018-09-26T23:09:40.964Z,29.07
2018-09-26T23:12:09.227Z,32.87
2018-09-26T23:14:37.495Z,34.43
2018-09-26T23:17:05.772Z,31.83
2018-09-26T23:19:34.048Z,38.03
2018-09-26T23:22:02.403Z,60.87
2018-09-26T23:24:30.767Z,62.07
2018-09-26T23:26:59.082Z,56.50
2018-09-26T23:29:27.419Z,52.90
2018-09-26T23:31:55.822Z,51.23
2018-09-26T23:34:24.088Z,50.00
2018-09-26T23:36:52.471Z,49.63
2018-09-26T23:39:20.728Z,49.83
2018-09-26T23:41:49.119Z,45.57
2018-09-26T23:44:17.400Z,47.17
2018-09-26T23:46:45.680Z,43.83
2018-09-26T23:49:13.966Z,33.67
2018-09-26T23:51:42.585Z,38.83
2018-09-26T23:54:10.881Z,53.27
2018-09-26T23:56:39.154Z,99.40
2018-09-26T23:59:07.448Z,76.63
